Schedule Details

Flight Number: CPX318
Departure: Phoenix Sky Harbor International Airport (KPHX) at N/A
Arrival: Portland International Airport (KPDX) at N/A
Route: ZEPER1 SISIE DOVEE BTY KO48I SOERN TMBRS2


Current Weather Information
KPHX 151951Z 20006KT 10SM SCT040 BKN070 OVC250 19/09 A2997 RMK AO2 SLP140 T01940089 $
KPDX 151953Z 18008KT 10SM BKN022 BKN090 BKN200 08/03 A2969 RMK AO2 WSHFT 1844 RAE20 SLP054 P0000 T00780033

Route Map